createdAt,value
2018-07-01T00:00:10.656Z,4.828032
2018-07-01T00:00:23.978Z,9.656064
2018-07-01T00:00:36.408Z,11.265408
2018-07-01T00:00:48.817Z,11.265408
2018-07-01T00:01:01.251Z,11.265408
2018-07-01T00:01:13.736Z,12.874752
2018-07-01T00:01:26.294Z,12.874752
2018-07-01T00:01:38.706Z,14.484096
2018-07-01T00:01:51.127Z,14.484096
2018-07-01T00:02:03.529Z,14.484096
2018-07-01T00:02:15.930Z,8.04672
2018-07-01T00:02:28.331Z,8.04672
2018-07-01T00:02:40.724Z,8.04672
2018-07-01T00:02:53.138Z,9.656064
2018-07-01T00:03:05.550Z,1.609344
2018-07-01T00:03:17.963Z,3.218688
2018-07-01T00:03:30.354Z,4.828032
2018-07-01T00:03:42.781Z,6.437376
2018-07-01T00:03:55.185Z,6.437376
2018-07-01T00:04:07.612Z,11.265408
2018-07-01T00:04:20.049Z,11.265408
2018-07-01T00:04:32.503Z,12.874752
2018-07-01T00:04:44.896Z,12.874752
2018-07-01T00:04:57.292Z,12.874752
2018-07-01T00:05:09.739Z,8.04672
2018-07-01T00:05:22.157Z,8.04672
2018-07-01T00:05:34.548Z,8.04672
2018-07-01T00:05:46.940Z,8.04672
2018-07-01T00:05:59.360Z,11.265408
2018-07-01T00:06:11.762Z,8.04672
2018-07-01T00:06:24.155Z,8.04672
2018-07-01T00:06:36.551Z,8.04672
2018-07-01T00:06:48.944Z,8.04672
2018-07-01T00:07:01.329Z,12.874752
2018-07-01T00:07:13.993Z,14.484096
2018-07-01T00:07:26.381Z,14.484096
2018-07-01T00:07:38.781Z,14.484096
2018-07-01T00:07:51.184Z,14.484096
2018-07-01T00:08:03.581Z,14.484096
2018-07-01T00:08:15.970Z,8.04672
2018-07-01T00:08:28.508Z,8.04672
2018-07-01T00:08:40.895Z,12.874752
2018-07-01T00:08:53.358Z,14.484096
2018-07-01T00:09:05.750Z,3.218688
2018-07-01T00:09:18.148Z,6.437376
2018-07-01T00:09:30.563Z,6.437376
2018-07-01T00:09:42.982Z,6.437376
2018-07-01T00:09:55.399Z,17.702784
2018-07-01T00:10:07.854Z,12.874752
2018-07-01T00:10:20.267Z,12.874752
2018-07-01T00:10:32.658Z,12.874752
2018-07-01T00:10:45.458Z,12.874752
2018-07-01T00:10:58.588Z,12.874752
2018-07-01T00:11:11.009Z,3.218688
2018-07-01T00:11:23.431Z,4.828032
2018-07-01T00:11:35.857Z,4.828032
2018-07-01T00:11:48.261Z,9.656064
2018-07-01T00:12:00.715Z,11.265408
2018-07-01T00:12:13.144Z,9.656064
2018-07-01T00:12:25.548Z,9.656064
2018-07-01T00:12:37.994Z,9.656064
2018-07-01T00:12:50.390Z,9.656064
2018-07-01T00:13:02.869Z,9.656064
2018-07-01T00:13:15.275Z,1.609344
2018-07-01T00:13:27.674Z,1.609344
2018-07-01T00:13:40.081Z,1.609344
2018-07-01T00:13:52.472Z,3.218688
2018-07-01T00:14:04.873Z,3.218688
2018-07-01T00:14:17.280Z,11.265408
2018-07-01T00:14:29.681Z,11.265408
2018-07-01T00:14:42.094Z,11.265408
2018-07-01T00:14:54.502Z,11.265408
2018-07-01T00:15:06.909Z,11.265408
2018-07-01T00:15:19.305Z,11.265408
2018-07-01T00:15:31.702Z,11.265408
2018-07-01T00:15:44.096Z,12.874752
2018-07-01T00:15:56.541Z,12.874752
2018-07-01T00:16:08.944Z,9.656064
2018-07-01T00:16:21.554Z,11.265408
2018-07-01T00:16:33.963Z,11.265408
2018-07-01T00:16:46.372Z,11.265408
2018-07-01T00:16:58.791Z,11.265408
2018-07-01T00:17:11.195Z,3.218688
2018-07-01T00:17:23.599Z,3.218688
2018-07-01T00:17:35.987Z,6.437376
2018-07-01T00:17:48.384Z,6.437376
2018-07-01T00:18:00.775Z,6.437376
2018-07-01T00:18:13.228Z,11.265408
2018-07-01T00:18:25.653Z,11.265408
2018-07-01T00:18:38.087Z,11.265408
2018-07-01T00:18:50.486Z,11.265408
2018-07-01T00:19:02.944Z,11.265408
2018-07-01T00:19:15.332Z,6.437376
2018-07-01T00:19:27.729Z,6.437376
2018-07-01T00:19:40.126Z,8.04672
2018-07-01T00:19:52.528Z,8.04672
2018-07-01T00:20:04.975Z,6.437376
2018-07-01T00:20:17.368Z,6.437376
2018-07-01T00:20:29.789Z,8.04672
2018-07-01T00:20:42.191Z,9.656064
2018-07-01T00:20:54.593Z,9.656064
2018-07-01T00:21:07.041Z,1.609344
2018-07-01T00:21:19.438Z,1.609344
2018-07-01T00:21:31.827Z,6.437376
2018-07-01T00:21:44.222Z,9.656064
2018-07-01T00:21:56.614Z,9.656064
2018-07-01T00:22:09.013Z,1.609344
2018-07-01T00:22:21.431Z,11.265408
2018-07-01T00:22:33.821Z,11.265408
2018-07-01T00:22:46.226Z,11.265408
2018-07-01T00:22:58.640Z,11.265408
2018-07-01T00:23:11.221Z,4.828032
2018-07-01T00:23:23.625Z,9.656064
2018-07-01T00:23:36.016Z,9.656064
2018-07-01T00:23:48.449Z,9.656064
2018-07-01T00:24:00.854Z,9.656064
2018-07-01T00:24:13.271Z,6.437376
2018-07-01T00:24:25.670Z,6.437376
2018-07-01T00:24:38.094Z,8.04672
2018-07-01T00:24:50.497Z,9.656064
2018-07-01T00:25:02.952Z,12.874752
2018-07-01T00:25:15.349Z,9.656064
2018-07-01T00:25:27.761Z,9.656064
2018-07-01T00:25:40.153Z,12.874752
2018-07-01T00:25:52.558Z,19.312128
2018-07-01T00:26:04.970Z,8.04672
2018-07-01T00:26:17.384Z,12.874752
2018-07-01T00:26:29.800Z,12.874752
2018-07-01T00:26:42.208Z,12.874752
2018-07-01T00:26:54.612Z,12.874752
2018-07-01T00:27:07.080Z,4.828032
2018-07-01T00:27:19.478Z,11.265408
2018-07-01T00:27:31.880Z,11.265408
2018-07-01T00:27:44.348Z,12.874752
2018-07-01T00:27:56.739Z,12.874752
2018-07-01T00:28:09.156Z,8.04672
2018-07-01T00:28:21.564Z,8.04672
2018-07-01T00:28:33.953Z,9.656064
2018-07-01T00:28:46.373Z,9.656064
2018-07-01T00:28:58.779Z,11.265408
2018-07-01T00:29:11.183Z,8.04672
2018-07-01T00:29:23.571Z,8.04672
2018-07-01T00:29:35.970Z,8.04672
2018-07-01T00:29:48.388Z,8.04672
2018-07-01T00:30:00.803Z,8.04672
2018-07-01T00:30:13.223Z,3.218688
2018-07-01T00:30:25.609Z,4.828032
2018-07-01T00:30:38.010Z,6.437376
2018-07-01T00:30:50.394Z,6.437376
2018-07-01T00:31:02.811Z,6.437376
2018-07-01T00:31:15.281Z,8.04672
2018-07-01T00:31:27.691Z,8.04672
2018-07-01T00:31:40.089Z,12.874752
2018-07-01T00:31:52.482Z,12.874752
2018-07-01T00:32:04.895Z,11.265408
2018-07-01T00:32:17.307Z,11.265408
2018-07-01T00:32:29.696Z,11.265408
2018-07-01T00:32:42.089Z,11.265408
2018-07-01T00:32:54.476Z,11.265408
2018-07-01T00:33:06.895Z,3.218688
2018-07-01T00:33:19.334Z,6.437376
2018-07-01T00:33:31.746Z,6.437376
2018-07-01T00:33:44.141Z,6.437376
2018-07-01T00:33:56.559Z,6.437376
2018-07-01T00:34:08.960Z,0
2018-07-01T00:34:21.366Z,6.437376
2018-07-01T00:34:33.773Z,6.437376
2018-07-01T00:34:46.267Z,6.437376
2018-07-01T00:34:58.674Z,6.437376
2018-07-01T00:35:11.104Z,4.828032
2018-07-01T00:35:23.510Z,4.828032
2018-07-01T00:35:35.924Z,8.04672
2018-07-01T00:35:48.317Z,9.656064
2018-07-01T00:36:00.729Z,9.656064
2018-07-01T00:36:13.146Z,9.656064
2018-07-01T00:36:25.594Z,9.656064
2018-07-01T00:36:38.003Z,12.874752
2018-07-01T00:36:50.408Z,12.874752
2018-07-01T00:37:02.805Z,12.874752
2018-07-01T00:37:15.204Z,12.874752
2018-07-01T00:37:27.616Z,12.874752
2018-07-01T00:37:40.013Z,12.874752
2018-07-01T00:37:52.412Z,12.874752
2018-07-01T00:38:04.858Z,12.874752
2018-07-01T00:38:17.256Z,12.874752
2018-07-01T00:38:29.652Z,12.874752
2018-07-01T00:38:42.036Z,12.874752
2018-07-01T00:38:54.727Z,12.874752
2018-07-01T00:39:07.256Z,8.04672
2018-07-01T00:39:19.641Z,9.656064
2018-07-01T00:39:32.045Z,9.656064
2018-07-01T00:39:44.466Z,9.656064
2018-07-01T00:39:56.861Z,9.656064
2018-07-01T00:40:09.395Z,6.437376
2018-07-01T00:40:21.794Z,6.437376
2018-07-01T00:40:34.209Z,6.437376
2018-07-01T00:40:46.613Z,6.437376
2018-07-01T00:40:59.025Z,8.04672
2018-07-01T00:41:11.432Z,6.437376
2018-07-01T00:41:23.835Z,6.437376
2018-07-01T00:41:36.228Z,6.437376
2018-07-01T00:41:48.640Z,6.437376
2018-07-01T00:42:01.040Z,6.437376
2018-07-01T00:42:13.474Z,1.609344
2018-07-01T00:42:25.864Z,8.04672
2018-07-01T00:42:38.267Z,8.04672
2018-07-01T00:42:50.675Z,8.04672
2018-07-01T00:43:03.071Z,8.04672
2018-07-01T00:43:15.472Z,3.218688
2018-07-01T00:43:27.887Z,8.04672
2018-07-01T00:43:40.340Z,8.04672
2018-07-01T00:43:52.803Z,8.04672
2018-07-01T00:44:05.200Z,6.437376
2018-07-01T00:44:17.585Z,9.656064
2018-07-01T00:44:29.992Z,9.656064
2018-07-01T00:44:42.446Z,9.656064
2018-07-01T00:44:54.850Z,9.656064
2018-07-01T00:45:07.276Z,4.828032
2018-07-01T00:45:19.677Z,4.828032
2018-07-01T00:45:32.100Z,4.828032
2018-07-01T00:45:44.515Z,9.656064
2018-07-01T00:45:57.084Z,12.874752
2018-07-01T00:46:09.484Z,11.265408
2018-07-01T00:46:21.875Z,11.265408
2018-07-01T00:46:34.471Z,11.265408
2018-07-01T00:46:46.875Z,16.09344
2018-07-01T00:46:59.286Z,16.09344
2018-07-01T00:47:11.676Z,9.656064
2018-07-01T00:47:24.078Z,11.265408
2018-07-01T00:47:36.495Z,11.265408
2018-07-01T00:47:48.961Z,11.265408
2018-07-01T00:48:01.366Z,11.265408
2018-07-01T00:48:13.785Z,6.437376
2018-07-01T00:48:26.171Z,9.656064
2018-07-01T00:48:38.742Z,9.656064
2018-07-01T00:48:51.176Z,9.656064
2018-07-01T00:49:03.582Z,9.656064
2018-07-01T00:49:15.975Z,6.437376
2018-07-01T00:49:28.421Z,6.437376
2018-07-01T00:49:40.808Z,6.437376
2018-07-01T00:49:53.208Z,6.437376
2018-07-01T00:50:05.606Z,6.437376
2018-07-01T00:50:18.016Z,8.04672
2018-07-01T00:50:30.420Z,8.04672
2018-07-01T00:50:42.812Z,8.04672
2018-07-01T00:50:55.215Z,8.04672
2018-07-01T00:51:07.618Z,4.828032
2018-07-01T00:51:20.001Z,4.828032
2018-07-01T00:51:32.400Z,4.828032
2018-07-01T00:51:44.797Z,4.828032
2018-07-01T00:51:57.186Z,4.828032
2018-07-01T00:52:09.582Z,1.609344
2018-07-01T00:52:21.994Z,8.04672
2018-07-01T00:52:34.392Z,8.04672
2018-07-01T00:52:46.790Z,11.265408
2018-07-01T00:52:59.312Z,14.484096
2018-07-01T00:53:11.712Z,6.437376
2018-07-01T00:53:24.116Z,11.265408
2018-07-01T00:53:36.556Z,11.265408
2018-07-01T00:53:48.955Z,11.265408
2018-07-01T00:54:01.341Z,11.265408
2018-07-01T00:54:13.736Z,4.828032
2018-07-01T00:54:26.117Z,4.828032
2018-07-01T00:54:38.514Z,8.04672
2018-07-01T00:54:50.911Z,8.04672
2018-07-01T00:55:03.318Z,8.04672
2018-07-01T00:55:15.724Z,6.437376
2018-07-01T00:55:28.122Z,6.437376
2018-07-01T00:55:40.525Z,6.437376
2018-07-01T00:55:52.986Z,12.874752
2018-07-01T00:56:05.376Z,6.437376
2018-07-01T00:56:17.783Z,11.265408
2018-07-01T00:56:30.216Z,12.874752
2018-07-01T00:56:42.608Z,12.874752
2018-07-01T00:56:55.011Z,12.874752
2018-07-01T00:57:07.412Z,4.828032
2018-07-01T00:57:19.803Z,4.828032
2018-07-01T00:57:32.205Z,4.828032
2018-07-01T00:57:44.637Z,4.828032
2018-07-01T00:57:57.088Z,4.828032
2018-07-01T00:58:09.486Z,1.609344
2018-07-01T00:58:21.872Z,6.437376
2018-07-01T00:58:34.281Z,6.437376
2018-07-01T00:58:46.683Z,6.437376
2018-07-01T00:58:59.138Z,6.437376
2018-07-01T00:59:11.528Z,1.609344
2018-07-01T00:59:23.918Z,4.828032
2018-07-01T00:59:36.348Z,8.04672
2018-07-01T00:59:48.749Z,8.04672
2018-07-01T01:00:01.305Z,8.04672
2018-07-01T01:00:13.719Z,6.437376
2018-07-01T01:00:26.148Z,6.437376
2018-07-01T01:00:38.639Z,6.437376
2018-07-01T01:00:51.048Z,6.437376
2018-07-01T01:01:03.527Z,8.04672
2018-07-01T01:01:16.102Z,6.437376
2018-07-01T01:01:28.647Z,6.437376
2018-07-01T01:01:41.086Z,6.437376
2018-07-01T01:01:53.515Z,8.04672
2018-07-01T01:02:05.929Z,8.04672
2018-07-01T01:02:18.356Z,8.04672
2018-07-01T01:02:30.760Z,8.04672
2018-07-01T01:02:43.186Z,8.04672
2018-07-01T01:02:55.608Z,8.04672
2018-07-01T01:03:08.000Z,4.828032
2018-07-01T01:03:20.405Z,6.437376
2018-07-01T01:03:32.826Z,6.437376
2018-07-01T01:03:45.212Z,8.04672
2018-07-01T01:03:57.622Z,12.874752
2018-07-01T01:04:10.033Z,9.656064
2018-07-01T01:04:22.501Z,9.656064
2018-07-01T01:04:34.906Z,9.656064
2018-07-01T01:04:47.360Z,11.265408
2018-07-01T01:04:59.761Z,11.265408
2018-07-01T01:05:12.165Z,8.04672
2018-07-01T01:05:24.591Z,9.656064
2018-07-01T01:05:36.992Z,9.656064
2018-07-01T01:05:49.451Z,9.656064
2018-07-01T01:06:01.871Z,9.656064
2018-07-01T01:06:14.275Z,6.437376
2018-07-01T01:06:26.840Z,6.437376
2018-07-01T01:06:39.276Z,6.437376
2018-07-01T01:06:51.674Z,6.437376
2018-07-01T01:07:04.164Z,8.04672
2018-07-01T01:07:16.565Z,8.04672
2018-07-01T01:07:28.984Z,8.04672
2018-07-01T01:07:41.397Z,8.04672
2018-07-01T01:07:53.797Z,8.04672
2018-07-01T01:08:06.230Z,3.218688
2018-07-01T01:08:18.894Z,3.218688
2018-07-01T01:08:31.285Z,3.218688
2018-07-01T01:08:43.692Z,6.437376
2018-07-01T01:08:56.119Z,6.437376
2018-07-01T01:09:08.523Z,8.04672
2018-07-01T01:09:20.982Z,8.04672
2018-07-01T01:09:33.439Z,8.04672
2018-07-01T01:09:45.851Z,9.656064
2018-07-01T01:09:58.246Z,11.265408
2018-07-01T01:10:10.681Z,4.828032
2018-07-01T01:10:23.085Z,4.828032
2018-07-01T01:10:35.492Z,6.437376
2018-07-01T01:10:47.887Z,8.04672
2018-07-01T01:11:00.283Z,8.04672
2018-07-01T01:11:12.678Z,3.218688
2018-07-01T01:11:25.065Z,6.437376
2018-07-01T01:11:37.456Z,6.437376
2018-07-01T01:11:49.927Z,8.04672
2018-07-01T01:12:02.339Z,11.265408
2018-07-01T01:12:14.735Z,11.265408
2018-07-01T01:12:27.138Z,11.265408
2018-07-01T01:12:39.552Z,11.265408
2018-07-01T01:12:51.971Z,11.265408
2018-07-01T01:13:04.380Z,11.265408
2018-07-01T01:13:16.789Z,11.265408
2018-07-01T01:13:29.245Z,11.265408
2018-07-01T01:13:41.660Z,11.265408
2018-07-01T01:13:54.066Z,11.265408
2018-07-01T01:14:06.453Z,4.828032
2018-07-01T01:14:18.841Z,4.828032
2018-07-01T01:14:31.240Z,4.828032
2018-07-01T01:14:43.653Z,4.828032
2018-07-01T01:14:56.058Z,11.265408
2018-07-01T01:15:08.522Z,8.04672
2018-07-01T01:15:20.915Z,8.04672
2018-07-01T01:15:33.319Z,8.04672
2018-07-01T01:15:45.705Z,8.04672
2018-07-01T01:15:58.109Z,8.04672
2018-07-01T01:16:10.504Z,4.828032
2018-07-01T01:16:22.909Z,6.437376
2018-07-01T01:16:35.376Z,6.437376
2018-07-01T01:16:47.777Z,9.656064
2018-07-01T01:17:00.173Z,9.656064
2018-07-01T01:17:12.573Z,6.437376
2018-07-01T01:17:24.970Z,6.437376
2018-07-01T01:17:37.380Z,6.437376
2018-07-01T01:17:49.777Z,6.437376
2018-07-01T01:18:02.210Z,8.04672
2018-07-01T01:18:14.614Z,6.437376
2018-07-01T01:18:27.040Z,6.437376
2018-07-01T01:18:39.442Z,6.437376
2018-07-01T01:18:51.850Z,11.265408
2018-07-01T01:19:04.276Z,11.265408
2018-07-01T01:19:16.684Z,12.874752
2018-07-01T01:19:29.082Z,14.484096
2018-07-01T01:19:41.480Z,14.484096
2018-07-01T01:19:53.881Z,14.484096
2018-07-01T01:20:06.320Z,8.04672
2018-07-01T01:20:18.724Z,12.874752
2018-07-01T01:20:31.117Z,12.874752
2018-07-01T01:20:43.512Z,12.874752
2018-07-01T01:20:55.919Z,12.874752
2018-07-01T01:21:08.325Z,1.609344
2018-07-01T01:21:20.756Z,6.437376
2018-07-01T01:21:33.161Z,6.437376
2018-07-01T01:21:45.551Z,6.437376
2018-07-01T01:21:57.958Z,6.437376
2018-07-01T01:22:10.358Z,8.04672
2018-07-01T01:22:22.750Z,8.04672
2018-07-01T01:22:35.167Z,8.04672
2018-07-01T01:22:47.578Z,8.04672
2018-07-01T01:22:59.965Z,8.04672
2018-07-01T01:23:12.529Z,11.265408
2018-07-01T01:23:24.923Z,11.265408
2018-07-01T01:23:37.310Z,11.265408
2018-07-01T01:23:49.711Z,11.265408
2018-07-01T01:24:02.102Z,11.265408
2018-07-01T01:24:14.510Z,4.828032
2018-07-01T01:24:26.914Z,12.874752
2018-07-01T01:24:39.320Z,16.09344
2018-07-01T01:24:51.749Z,16.09344
2018-07-01T01:25:04.130Z,4.828032
2018-07-01T01:25:16.562Z,4.828032
2018-07-01T01:25:28.966Z,6.437376
2018-07-01T01:25:41.358Z,6.437376
2018-07-01T01:25:53.759Z,6.437376
2018-07-01T01:26:06.147Z,9.656064
2018-07-01T01:26:18.582Z,12.874752
2018-07-01T01:26:30.981Z,12.874752
2018-07-01T01:26:43.369Z,12.874752
2018-07-01T01:26:55.773Z,12.874752
2018-07-01T01:27:08.180Z,8.04672
2018-07-01T01:27:20.568Z,8.04672
2018-07-01T01:27:32.965Z,8.04672
2018-07-01T01:27:45.435Z,8.04672
2018-07-01T01:27:57.833Z,8.04672
2018-07-01T01:28:10.281Z,6.437376
2018-07-01T01:28:22.682Z,6.437376
2018-07-01T01:28:35.071Z,8.04672
2018-07-01T01:28:47.458Z,8.04672
2018-07-01T01:28:59.886Z,11.265408
2018-07-01T01:29:12.282Z,9.656064
2018-07-01T01:29:24.666Z,9.656064
2018-07-01T01:29:37.071Z,9.656064
2018-07-01T01:29:49.454Z,9.656064
2018-07-01T01:30:01.857Z,9.656064
2018-07-01T01:30:14.260Z,6.437376
2018-07-01T01:30:26.663Z,6.437376
2018-07-01T01:30:39.088Z,6.437376
2018-07-01T01:30:51.494Z,6.437376
2018-07-01T01:31:03.900Z,6.437376
2018-07-01T01:31:16.302Z,6.437376
2018-07-01T01:31:28.710Z,8.04672
2018-07-01T01:31:41.101Z,8.04672
2018-07-01T01:31:53.496Z,8.04672
2018-07-01T01:32:05.904Z,3.218688
2018-07-01T01:32:18.301Z,3.218688
2018-07-01T01:32:30.699Z,3.218688
2018-07-01T01:32:43.103Z,9.656064
2018-07-01T01:32:55.504Z,9.656064
2018-07-01T01:33:07.971Z,3.218688
2018-07-01T01:33:20.371Z,3.218688
2018-07-01T01:33:32.768Z,3.218688
2018-07-01T01:33:45.158Z,3.218688
2018-07-01T01:33:57.550Z,8.04672
2018-07-01T01:34:09.946Z,8.04672
2018-07-01T01:34:22.365Z,9.656064
2018-07-01T01:34:34.770Z,9.656064
2018-07-01T01:34:47.161Z,9.656064
2018-07-01T01:34:59.555Z,9.656064
2018-07-01T01:35:11.956Z,6.437376
2018-07-01T01:35:24.374Z,12.874752
2018-07-01T01:35:36.777Z,12.874752
2018-07-01T01:35:49.165Z,12.874752
2018-07-01T01:36:01.555Z,12.874752
2018-07-01T01:36:13.957Z,6.437376
2018-07-01T01:36:26.363Z,6.437376
2018-07-01T01:36:38.766Z,8.04672
2018-07-01T01:36:51.180Z,8.04672
2018-07-01T01:37:03.576Z,9.656064
2018-07-01T01:37:15.966Z,8.04672
2018-07-01T01:37:28.384Z,8.04672
2018-07-01T01:37:40.781Z,11.265408
2018-07-01T01:37:53.163Z,11.265408
2018-07-01T01:38:05.626Z,6.437376
2018-07-01T01:38:18.075Z,6.437376
2018-07-01T01:38:30.469Z,8.04672
2018-07-01T01:38:42.927Z,8.04672
2018-07-01T01:38:55.333Z,8.04672
2018-07-01T01:39:12.836Z,6.437376
2018-07-01T01:39:25.242Z,6.437376
2018-07-01T01:39:37.650Z,6.437376
2018-07-01T01:39:50.039Z,6.437376
2018-07-01T01:40:02.530Z,6.437376
2018-07-01T01:40:14.929Z,9.656064
2018-07-01T01:40:27.321Z,9.656064
2018-07-01T01:40:39.753Z,9.656064
2018-07-01T01:40:52.165Z,9.656064
2018-07-01T01:41:04.599Z,1.609344
2018-07-01T01:41:17.004Z,3.218688
2018-07-01T01:41:29.397Z,4.828032
2018-07-01T01:41:42.021Z,4.828032
2018-07-01T01:41:54.429Z,4.828032
2018-07-01T01:42:06.837Z,6.437376
2018-07-01T01:42:19.249Z,8.04672
2018-07-01T01:42:31.656Z,9.656064
2018-07-01T01:42:44.049Z,9.656064
2018-07-01T01:42:56.445Z,9.656064
2018-07-01T01:43:08.862Z,6.437376
2018-07-01T01:43:21.261Z,6.437376
2018-07-01T01:43:33.665Z,6.437376
2018-07-01T01:43:46.090Z,6.437376
2018-07-01T01:43:58.480Z,6.437376
2018-07-01T01:44:10.887Z,3.218688
2018-07-01T01:44:23.281Z,4.828032
2018-07-01T01:44:35.677Z,4.828032
2018-07-01T01:44:48.075Z,6.437376
2018-07-01T01:45:00.495Z,6.437376
2018-07-01T01:45:12.921Z,3.218688
2018-07-01T01:45:25.313Z,3.218688
2018-07-01T01:45:37.709Z,4.828032
2018-07-01T01:45:50.258Z,8.04672
2018-07-01T01:46:02.653Z,8.04672
2018-07-01T01:46:15.037Z,3.218688
2018-07-01T01:46:27.554Z,3.218688
2018-07-01T01:46:39.936Z,3.218688
2018-07-01T01:46:52.316Z,3.218688
2018-07-01T01:47:04.724Z,3.218688
2018-07-01T01:47:17.123Z,8.04672
2018-07-01T01:47:29.511Z,8.04672
2018-07-01T01:47:41.906Z,8.04672
2018-07-01T01:47:54.315Z,8.04672
2018-07-01T01:48:06.734Z,6.437376
2018-07-01T01:48:19.128Z,8.04672
2018-07-01T01:48:31.519Z,8.04672
2018-07-01T01:48:44.045Z,11.265408
2018-07-01T01:48:56.492Z,11.265408
2018-07-01T01:49:08.885Z,3.218688
2018-07-01T01:49:21.280Z,6.437376
2018-07-01T01:49:33.678Z,9.656064
2018-07-01T01:49:46.074Z,12.874752
2018-07-01T01:49:58.468Z,12.874752
2018-07-01T01:50:10.889Z,6.437376
2018-07-01T01:50:23.297Z,6.437376
2018-07-01T01:50:35.688Z,6.437376
2018-07-01T01:50:48.085Z,6.437376
2018-07-01T01:51:00.486Z,6.437376
2018-07-01T01:51:12.892Z,3.218688
2018-07-01T01:51:25.299Z,4.828032
2018-07-01T01:51:37.715Z,6.437376
2018-07-01T01:51:50.111Z,11.265408
2018-07-01T01:52:02.509Z,11.265408
2018-07-01T01:52:14.904Z,11.265408
2018-07-01T01:52:27.355Z,11.265408
2018-07-01T01:52:39.749Z,11.265408
2018-07-01T01:52:52.148Z,11.265408
2018-07-01T01:53:04.562Z,8.04672
2018-07-01T01:53:16.957Z,8.04672
2018-07-01T01:53:29.493Z,8.04672
2018-07-01T01:53:41.876Z,8.04672
2018-07-01T01:53:54.270Z,8.04672
2018-07-01T01:54:06.674Z,4.828032
2018-07-01T01:54:19.067Z,4.828032
2018-07-01T01:54:31.459Z,6.437376
2018-07-01T01:54:43.862Z,8.04672
2018-07-01T01:54:56.311Z,8.04672
2018-07-01T01:55:08.730Z,3.218688
2018-07-01T01:55:21.136Z,3.218688
2018-07-01T01:55:33.536Z,6.437376
2018-07-01T01:55:45.939Z,6.437376
2018-07-01T01:55:58.358Z,6.437376
2018-07-01T01:56:10.750Z,1.609344
2018-07-01T01:56:23.160Z,6.437376
2018-07-01T01:56:35.577Z,6.437376
2018-07-01T01:56:47.979Z,6.437376
2018-07-01T01:57:00.375Z,6.437376
2018-07-01T01:57:12.792Z,6.437376
2018-07-01T01:57:25.186Z,8.04672
2018-07-01T01:57:37.591Z,8.04672
2018-07-01T01:57:49.989Z,8.04672
2018-07-01T01:58:02.395Z,8.04672
2018-07-01T01:58:14.793Z,3.218688
2018-07-01T01:58:27.220Z,3.218688
2018-07-01T01:58:39.658Z,3.218688
2018-07-01T01:58:52.049Z,3.218688
2018-07-01T01:59:04.448Z,3.218688
2018-07-01T01:59:16.847Z,3.218688
2018-07-01T01:59:29.279Z,3.218688
2018-07-01T01:59:41.675Z,3.218688
2018-07-01T01:59:54.085Z,3.218688
2018-07-01T02:00:06.502Z,1.609344
2018-07-01T02:00:18.919Z,1.609344
2018-07-01T02:00:31.360Z,1.609344
2018-07-01T02:00:43.798Z,8.04672
2018-07-01T02:00:56.233Z,8.04672
2018-07-01T02:01:08.777Z,6.437376
2018-07-01T02:01:21.354Z,6.437376
2018-07-01T02:01:33.748Z,6.437376
2018-07-01T02:01:46.161Z,6.437376
2018-07-01T02:01:58.588Z,8.04672
2018-07-01T02:02:10.998Z,4.828032
2018-07-01T02:02:23.408Z,8.04672
2018-07-01T02:02:35.800Z,8.04672
2018-07-01T02:02:48.195Z,8.04672
2018-07-01T02:03:00.601Z,8.04672
2018-07-01T02:03:13.032Z,6.437376
2018-07-01T02:03:25.435Z,6.437376
2018-07-01T02:03:37.829Z,6.437376
2018-07-01T02:03:50.241Z,6.437376
2018-07-01T02:04:02.635Z,8.04672
2018-07-01T02:04:15.027Z,3.218688
2018-07-01T02:04:27.429Z,3.218688
2018-07-01T02:04:39.816Z,3.218688
2018-07-01T02:04:52.219Z,9.656064
2018-07-01T02:05:04.623Z,6.437376
2018-07-01T02:05:17.036Z,6.437376
2018-07-01T02:05:29.443Z,9.656064
2018-07-01T02:05:41.832Z,9.656064
2018-07-01T02:05:54.219Z,9.656064
2018-07-01T02:06:06.616Z,8.04672
2018-07-01T02:06:19.035Z,8.04672
2018-07-01T02:06:31.619Z,8.04672
2018-07-01T02:06:44.045Z,12.874752
2018-07-01T02:06:56.475Z,12.874752
2018-07-01T02:07:08.936Z,3.218688
2018-07-01T02:07:21.342Z,8.04672
2018-07-01T02:07:33.757Z,11.265408
2018-07-01T02:07:46.164Z,11.265408
2018-07-01T02:07:58.581Z,11.265408
2018-07-01T02:08:11.044Z,4.828032
2018-07-01T02:08:23.599Z,8.04672
2018-07-01T02:08:36.009Z,8.04672
2018-07-01T02:08:48.399Z,8.04672
2018-07-01T02:09:00.797Z,8.04672
2018-07-01T02:09:13.198Z,3.218688
2018-07-01T02:09:25.609Z,3.218688
2018-07-01T02:09:38.030Z,6.437376
2018-07-01T02:09:50.434Z,8.04672
2018-07-01T02:10:02.842Z,8.04672
2018-07-01T02:10:15.286Z,3.218688
2018-07-01T02:10:27.703Z,3.218688
2018-07-01T02:10:40.102Z,3.218688
2018-07-01T02:10:52.493Z,6.437376
2018-07-01T02:11:04.894Z,6.437376
2018-07-01T02:11:17.287Z,6.437376
2018-07-01T02:11:29.728Z,6.437376
2018-07-01T02:11:42.134Z,6.437376
2018-07-01T02:11:54.554Z,6.437376
2018-07-01T02:12:06.971Z,3.218688
2018-07-01T02:12:19.435Z,3.218688
2018-07-01T02:12:31.859Z,3.218688
2018-07-01T02:12:44.248Z,6.437376
2018-07-01T02:12:56.665Z,8.04672
2018-07-01T02:13:09.073Z,9.656064
2018-07-01T02:13:21.477Z,9.656064
2018-07-01T02:13:33.911Z,9.656064
2018-07-01T02:13:46.298Z,9.656064
2018-07-01T02:13:58.716Z,9.656064
2018-07-01T02:14:11.135Z,3.218688
2018-07-01T02:14:23.533Z,3.218688
2018-07-01T02:14:35.938Z,3.218688
2018-07-01T02:14:48.357Z,3.218688
2018-07-01T02:15:00.757Z,3.218688
2018-07-01T02:15:13.176Z,3.218688
2018-07-01T02:15:25.566Z,3.218688
2018-07-01T02:15:37.961Z,3.218688
2018-07-01T02:15:50.359Z,3.218688
2018-07-01T02:16:02.747Z,3.218688
2018-07-01T02:16:15.147Z,1.609344
2018-07-01T02:16:27.546Z,1.609344
2018-07-01T02:16:39.941Z,1.609344
2018-07-01T02:16:52.342Z,1.609344
2018-07-01T02:17:04.740Z,0
2018-07-01T02:17:17.146Z,3.218688
2018-07-01T02:17:29.571Z,3.218688
2018-07-01T02:17:41.975Z,3.218688
2018-07-01T02:17:54.374Z,3.218688
2018-07-01T02:18:06.844Z,3.218688
2018-07-01T02:18:19.291Z,3.218688
2018-07-01T02:18:31.737Z,3.218688
2018-07-01T02:18:44.135Z,3.218688
2018-07-01T02:18:56.529Z,3.218688
2018-07-01T02:19:08.924Z,1.609344
2018-07-01T02:19:21.310Z,1.609344
2018-07-01T02:19:33.704Z,1.609344
2018-07-01T02:19:46.110Z,1.609344
2018-07-01T02:19:58.523Z,4.828032
2018-07-01T02:20:10.938Z,4.828032
2018-07-01T02:20:23.368Z,4.828032
2018-07-01T02:20:35.786Z,4.828032
2018-07-01T02:20:48.203Z,6.437376
2018-07-01T02:21:00.595Z,6.437376
2018-07-01T02:21:12.997Z,4.828032
2018-07-01T02:21:25.397Z,4.828032
2018-07-01T02:21:37.829Z,4.828032
2018-07-01T02:21:50.231Z,4.828032
2018-07-01T02:22:02.637Z,4.828032
2018-07-01T02:22:15.065Z,0
2018-07-01T02:22:27.488Z,0
2018-07-01T02:22:39.944Z,0
2018-07-01T02:22:52.343Z,0
2018-07-01T02:23:04.754Z,3.218688
2018-07-01T02:23:17.353Z,3.218688
2018-07-01T02:23:29.748Z,3.218688
2018-07-01T02:23:42.148Z,4.828032
2018-07-01T02:23:54.558Z,4.828032
2018-07-01T02:24:06.948Z,1.609344
2018-07-01T02:24:19.335Z,3.218688
2018-07-01T02:24:31.726Z,3.218688
2018-07-01T02:24:44.128Z,3.218688
2018-07-01T02:24:56.535Z,3.218688
2018-07-01T02:25:08.929Z,3.218688
2018-07-01T02:25:21.337Z,3.218688
2018-07-01T02:25:33.736Z,3.218688
2018-07-01T02:25:46.132Z,3.218688
2018-07-01T02:25:58.545Z,3.218688
2018-07-01T02:26:10.959Z,0